sensor_id;sensor_type;location;lat;lon;timestamp;P1;durP1;ratioP1;P2;durP2;ratioP2
76059;SDS011;64759;52.220;5.170;2022-11-15T00:01:40;58.40;;;32.10;;
76059;SDS011;64759;52.220;5.170;2022-11-15T00:04:24;58.08;;;31.70;;
76059;SDS011;64759;52.220;5.170;2022-11-15T00:07:08;60.15;;;31.00;;
76059;SDS011;64759;52.220;5.170;2022-11-15T00:09:52;56.03;;;30.40;;
76059;SDS011;64759;52.220;5.170;2022-11-15T00:12:36;52.78;;;29.20;;
76059;SDS011;64759;52.220;5.170;2022-11-15T00:15:20;66.22;;;32.47;;
76059;SDS011;64759;52.220;5.170;2022-11-15T00:18:04;57.55;;;29.70;;
76059;SDS011;64759;52.220;5.170;2022-11-15T00:20:49;62.33;;;31.42;;
76059;SDS011;64759;52.220;5.170;2022-11-15T00:23:33;67.25;;;34.50;;
76059;SDS011;64759;52.220;5.170;2022-11-15T00:26:17;87.05;;;36.35;;
76059;SDS011;64759;52.220;5.170;2022-11-15T00:29:02;78.72;;;36.25;;
76059;SDS011;64759;52.220;5.170;2022-11-15T00:31:45;71.70;;;33.63;;
76059;SDS011;64759;52.220;5.170;2022-11-15T00:34:30;89.45;;;34.47;;
76059;SDS011;64759;52.220;5.170;2022-11-15T00:37:14;82.38;;;37.00;;
76059;SDS011;64759;52.220;5.170;2022-11-15T00:39:57;87.60;;;35.97;;
76059;SDS011;64759;52.220;5.170;2022-11-15T00:42:41;74.45;;;33.33;;
76059;SDS011;64759;52.220;5.170;2022-11-15T00:45:25;86.03;;;34.03;;
76059;SDS011;64759;52.220;5.170;2022-11-15T00:48:09;92.82;;;36.15;;
76059;SDS011;64759;52.220;5.170;2022-11-15T00:50:53;92.13;;;34.35;;
76059;SDS011;64759;52.220;5.170;2022-11-15T00:53:37;107.30;;;37.20;;
76059;SDS011;64759;52.220;5.170;2022-11-15T00:56:21;87.80;;;35.42;;
76059;SDS011;64759;52.220;5.170;2022-11-15T00:59:05;89.97;;;33.75;;
76059;SDS011;64759;52.220;5.170;2022-11-15T01:01:49;118.95;;;40.50;;
76059;SDS011;64759;52.220;5.170;2022-11-15T01:04:33;91.43;;;36.95;;
76059;SDS011;64759;52.220;5.170;2022-11-15T01:07:17;94.82;;;37.35;;
76059;SDS011;64759;52.220;5.170;2022-11-15T01:10:01;89.40;;;35.33;;
76059;SDS011;64759;52.220;5.170;2022-11-15T01:12:45;114.28;;;39.95;;
76059;SDS011;64759;52.220;5.170;2022-11-15T01:15:28;106.07;;;39.20;;
76059;SDS011;64759;52.220;5.170;2022-11-15T01:18:12;96.75;;;38.60;;
76059;SDS011;64759;52.220;5.170;2022-11-15T01:20:56;103.20;;;40.55;;
76059;SDS011;64759;52.220;5.170;2022-11-15T01:23:40;112.68;;;39.72;;
76059;SDS011;64759;52.220;5.170;2022-11-15T01:26:25;107.53;;;39.88;;
76059;SDS011;64759;52.220;5.170;2022-11-15T01:29:09;104.63;;;40.78;;
76059;SDS011;64759;52.220;5.170;2022-11-15T01:31:53;117.13;;;40.05;;
76059;SDS011;64759;52.220;5.170;2022-11-15T01:34:37;94.20;;;36.83;;
76059;SDS011;64759;52.220;5.170;2022-11-15T01:37:21;101.97;;;37.85;;
76059;SDS011;64759;52.220;5.170;2022-11-15T01:40:05;113.28;;;40.00;;
76059;SDS011;64759;52.220;5.170;2022-11-15T01:42:50;104.88;;;41.35;;
76059;SDS011;64759;52.220;5.170;2022-11-15T01:45:34;103.60;;;40.67;;
76059;SDS011;64759;52.220;5.170;2022-11-15T01:48:17;96.68;;;37.38;;
76059;SDS011;64759;52.220;5.170;2022-11-15T01:51:02;112.05;;;40.30;;
76059;SDS011;64759;52.220;5.170;2022-11-15T01:53:51;118.40;;;43.70;;
76059;SDS011;64759;52.220;5.170;2022-11-15T01:56:42;109.07;;;41.33;;
76059;SDS011;64759;52.220;5.170;2022-11-15T01:59:31;102.50;;;40.13;;
76059;SDS011;64759;52.220;5.170;2022-11-15T02:02:16;93.78;;;39.40;;
76059;SDS011;64759;52.220;5.170;2022-11-15T02:05:00;104.03;;;40.38;;
76059;SDS011;64759;52.220;5.170;2022-11-15T02:07:44;86.72;;;37.10;;
76059;SDS011;64759;52.220;5.170;2022-11-15T02:10:30;109.20;;;41.95;;
76059;SDS011;64759;52.220;5.170;2022-11-15T02:13:14;96.38;;;40.70;;
76059;SDS011;64759;52.220;5.170;2022-11-15T02:18:57;127.60;;;47.63;;
76059;SDS011;64759;52.220;5.170;2022-11-15T02:25:03;110.20;;;41.55;;
76059;SDS011;64759;52.220;5.170;2022-11-15T02:31:51;124.05;;;47.17;;
76059;SDS011;64759;52.220;5.170;2022-11-15T02:37:37;137.67;;;50.70;;
76059;SDS011;64759;52.220;5.170;2022-11-15T02:40:28;122.75;;;48.05;;
76059;SDS011;64759;52.220;5.170;2022-11-15T02:43:29;154.38;;;52.80;;
76059;SDS011;64759;52.220;5.170;2022-11-15T02:46:40;152.63;;;53.33;;
76059;SDS011;64759;52.220;5.170;2022-11-15T02:49:46;166.35;;;56.70;;
76059;SDS011;64759;52.220;5.170;2022-11-15T02:52:32;171.40;;;57.60;;
76059;SDS011;64759;52.220;5.170;2022-11-15T03:04:44;166.50;;;53.85;;
76059;SDS011;64759;52.220;5.170;2022-11-15T03:10:40;171.82;;;58.42;;
76059;SDS011;64759;52.220;5.170;2022-11-15T03:13:39;163.23;;;57.70;;
76059;SDS011;64759;52.220;5.170;2022-11-15T03:19:53;138.13;;;52.40;;
76059;SDS011;64759;52.220;5.170;2022-11-15T03:22:42;174.43;;;58.90;;
76059;SDS011;64759;52.220;5.170;2022-11-15T03:25:27;176.30;;;57.88;;
76059;SDS011;64759;52.220;5.170;2022-11-15T03:28:17;177.07;;;59.85;;
76059;SDS011;64759;52.220;5.170;2022-11-15T03:31:15;174.27;;;59.97;;
76059;SDS011;64759;52.220;5.170;2022-11-15T03:37:22;116.47;;;39.57;;
76059;SDS011;64759;52.220;5.170;2022-11-15T03:40:13;164.57;;;55.60;;
76059;SDS011;64759;52.220;5.170;2022-11-15T03:43:06;163.00;;;58.40;;
76059;SDS011;64759;52.220;5.170;2022-11-15T03:46:07;165.00;;;54.92;;
76059;SDS011;64759;52.220;5.170;2022-11-15T03:49:04;154.00;;;56.75;;
76059;SDS011;64759;52.220;5.170;2022-11-15T03:51:52;142.52;;;53.25;;
76059;SDS011;64759;52.220;5.170;2022-11-15T03:54:47;144.05;;;55.17;;
76059;SDS011;64759;52.220;5.170;2022-11-15T03:57:33;161.30;;;57.53;;
76059;SDS011;64759;52.220;5.170;2022-11-15T04:00:17;150.05;;;55.95;;
76059;SDS011;64759;52.220;5.170;2022-11-15T04:03:01;131.95;;;55.65;;
76059;SDS011;64759;52.220;5.170;2022-11-15T04:05:44;165.57;;;58.40;;
76059;SDS011;64759;52.220;5.170;2022-11-15T04:08:28;140.13;;;56.63;;
76059;SDS011;64759;52.220;5.170;2022-11-15T04:11:12;137.80;;;56.78;;
76059;SDS011;64759;52.220;5.170;2022-11-15T04:13:56;130.20;;;54.13;;
76059;SDS011;64759;52.220;5.170;2022-11-15T04:16:40;121.35;;;52.55;;
76059;SDS011;64759;52.220;5.170;2022-11-15T04:19:24;127.20;;;53.75;;
76059;SDS011;64759;52.220;5.170;2022-11-15T04:22:27;126.43;;;53.38;;
76059;SDS011;64759;52.220;5.170;2022-11-15T04:25:30;112.78;;;50.42;;
76059;SDS011;64759;52.220;5.170;2022-11-15T04:28:14;106.25;;;49.50;;
76059;SDS011;64759;52.220;5.170;2022-11-15T04:30:58;101.65;;;49.47;;
76059;SDS011;64759;52.220;5.170;2022-11-15T04:33:41;99.85;;;47.97;;
76059;SDS011;64759;52.220;5.170;2022-11-15T04:36:26;95.03;;;46.30;;
76059;SDS011;64759;52.220;5.170;2022-11-15T04:39:28;95.50;;;42.35;;
76059;SDS011;64759;52.220;5.170;2022-11-15T04:42:12;93.25;;;44.92;;
76059;SDS011;64759;52.220;5.170;2022-11-15T04:44:56;101.63;;;46.25;;
76059;SDS011;64759;52.220;5.170;2022-11-15T04:47:42;86.85;;;44.08;;
76059;SDS011;64759;52.220;5.170;2022-11-15T04:50:27;82.30;;;44.47;;
76059;SDS011;64759;52.220;5.170;2022-11-15T04:53:11;100.07;;;45.90;;
76059;SDS011;64759;52.220;5.170;2022-11-15T04:55:55;91.63;;;44.85;;
76059;SDS011;64759;52.220;5.170;2022-11-15T04:58:39;94.20;;;44.45;;
76059;SDS011;64759;52.220;5.170;2022-11-15T05:01:23;88.57;;;46.03;;
76059;SDS011;64759;52.220;5.170;2022-11-15T05:04:07;97.28;;;43.95;;
76059;SDS011;64759;52.220;5.170;2022-11-15T05:07:03;96.53;;;45.00;;
76059;SDS011;64759;52.220;5.170;2022-11-15T05:09:50;91.40;;;45.92;;
76059;SDS011;64759;52.220;5.170;2022-11-15T05:12:34;76.03;;;40.40;;
76059;SDS011;64759;52.220;5.170;2022-11-15T05:15:18;79.68;;;41.67;;
76059;SDS011;64759;52.220;5.170;2022-11-15T05:18:02;85.07;;;43.42;;
76059;SDS011;64759;52.220;5.170;2022-11-15T05:20:46;69.80;;;39.60;;
76059;SDS011;64759;52.220;5.170;2022-11-15T05:23:30;75.80;;;41.60;;
76059;SDS011;64759;52.220;5.170;2022-11-15T05:26:15;79.80;;;42.03;;
76059;SDS011;64759;52.220;5.170;2022-11-15T05:29:01;79.97;;;39.72;;
76059;SDS011;64759;52.220;5.170;2022-11-15T05:31:45;72.82;;;39.58;;
76059;SDS011;64759;52.220;5.170;2022-11-15T05:34:29;65.28;;;36.00;;
76059;SDS011;64759;52.220;5.170;2022-11-15T05:37:13;59.67;;;34.15;;
76059;SDS011;64759;52.220;5.170;2022-11-15T05:39:58;58.97;;;35.10;;
76059;SDS011;64759;52.220;5.170;2022-11-15T05:42:42;71.80;;;35.60;;
76059;SDS011;64759;52.220;5.170;2022-11-15T05:45:26;60.83;;;35.35;;
76059;SDS011;64759;52.220;5.170;2022-11-15T05:48:10;71.10;;;35.70;;
76059;SDS011;64759;52.220;5.170;2022-11-15T05:50:55;57.25;;;35.50;;
76059;SDS011;64759;52.220;5.170;2022-11-15T05:53:40;61.92;;;35.47;;
76059;SDS011;64759;52.220;5.170;2022-11-15T05:56:24;53.42;;;34.17;;
76059;SDS011;64759;52.220;5.170;2022-11-15T05:59:09;62.78;;;35.65;;
76059;SDS011;64759;52.220;5.170;2022-11-15T06:01:54;66.45;;;34.60;;
76059;SDS011;64759;52.220;5.170;2022-11-15T06:04:38;64.68;;;37.50;;
76059;SDS011;64759;52.220;5.170;2022-11-15T06:07:22;58.28;;;34.33;;
76059;SDS011;64759;52.220;5.170;2022-11-15T06:10:06;55.83;;;32.10;;
76059;SDS011;64759;52.220;5.170;2022-11-15T06:12:57;54.20;;;31.35;;
76059;SDS011;64759;52.220;5.170;2022-11-15T06:15:42;54.53;;;32.75;;
76059;SDS011;64759;52.220;5.170;2022-11-15T06:18:26;59.10;;;34.28;;
76059;SDS011;64759;52.220;5.170;2022-11-15T06:21:10;60.88;;;33.20;;
76059;SDS011;64759;52.220;5.170;2022-11-15T06:23:54;54.22;;;34.15;;
76059;SDS011;64759;52.220;5.170;2022-11-15T06:26:38;60.08;;;33.92;;
76059;SDS011;64759;52.220;5.170;2022-11-15T06:29:22;54.85;;;34.58;;
76059;SDS011;64759;52.220;5.170;2022-11-15T06:32:06;57.28;;;34.30;;
76059;SDS011;64759;52.220;5.170;2022-11-15T06:34:50;58.13;;;34.33;;
76059;SDS011;64759;52.220;5.170;2022-11-15T06:37:34;58.03;;;35.60;;
76059;SDS011;64759;52.220;5.170;2022-11-15T06:40:18;58.88;;;34.70;;
76059;SDS011;64759;52.220;5.170;2022-11-15T06:43:02;71.35;;;34.40;;
76059;SDS011;64759;52.220;5.170;2022-11-15T06:45:48;63.05;;;34.05;;
76059;SDS011;64759;52.220;5.170;2022-11-15T06:48:32;60.63;;;35.05;;
76059;SDS011;64759;52.220;5.170;2022-11-15T06:51:16;66.70;;;37.10;;
76059;SDS011;64759;52.220;5.170;2022-11-15T06:54:00;57.83;;;35.55;;
76059;SDS011;64759;52.220;5.170;2022-11-15T06:56:44;55.50;;;34.67;;
76059;SDS011;64759;52.220;5.170;2022-11-15T06:59:28;57.70;;;33.70;;
76059;SDS011;64759;52.220;5.170;2022-11-15T07:02:13;59.72;;;33.95;;
76059;SDS011;64759;52.220;5.170;2022-11-15T07:04:57;52.10;;;30.27;;
76059;SDS011;64759;52.220;5.170;2022-11-15T07:07:41;66.57;;;35.72;;
76059;SDS011;64759;52.220;5.170;2022-11-15T07:10:25;54.50;;;31.63;;
76059;SDS011;64759;52.220;5.170;2022-11-15T07:13:10;52.08;;;31.10;;
76059;SDS011;64759;52.220;5.170;2022-11-15T07:15:54;46.60;;;29.17;;
76059;SDS011;64759;52.220;5.170;2022-11-15T07:18:38;48.20;;;28.88;;
76059;SDS011;64759;52.220;5.170;2022-11-15T07:21:24;49.55;;;28.90;;
76059;SDS011;64759;52.220;5.170;2022-11-15T07:24:08;43.03;;;28.23;;
76059;SDS011;64759;52.220;5.170;2022-11-15T07:26:51;50.15;;;28.58;;
76059;SDS011;64759;52.220;5.170;2022-11-15T07:29:35;40.80;;;27.55;;
76059;SDS011;64759;52.220;5.170;2022-11-15T07:32:19;48.88;;;28.30;;
76059;SDS011;64759;52.220;5.170;2022-11-15T07:35:03;54.70;;;30.13;;
76059;SDS011;64759;52.220;5.170;2022-11-15T07:37:58;49.00;;;29.73;;
76059;SDS011;64759;52.220;5.170;2022-11-15T07:40:44;46.42;;;29.23;;
76059;SDS011;64759;52.220;5.170;2022-11-15T07:43:28;49.22;;;28.70;;
76059;SDS011;64759;52.220;5.170;2022-11-15T07:46:13;49.72;;;26.90;;
76059;SDS011;64759;52.220;5.170;2022-11-15T07:48:56;48.28;;;28.52;;
76059;SDS011;64759;52.220;5.170;2022-11-15T07:51:40;43.83;;;27.00;;
76059;SDS011;64759;52.220;5.170;2022-11-15T07:54:24;45.63;;;25.65;;
76059;SDS011;64759;52.220;5.170;2022-11-15T07:57:08;39.95;;;24.52;;
76059;SDS011;64759;52.220;5.170;2022-11-15T07:59:53;46.17;;;25.08;;
76059;SDS011;64759;52.220;5.170;2022-11-15T08:02:37;44.22;;;24.73;;
76059;SDS011;64759;52.220;5.170;2022-11-15T08:05:21;41.47;;;25.17;;
76059;SDS011;64759;52.220;5.170;2022-11-15T08:08:05;46.53;;;25.00;;
76059;SDS011;64759;52.220;5.170;2022-11-15T08:10:49;41.67;;;25.30;;
76059;SDS011;64759;52.220;5.170;2022-11-15T08:13:34;45.42;;;26.42;;
76059;SDS011;64759;52.220;5.170;2022-11-15T08:16:18;41.40;;;24.55;;
76059;SDS011;64759;52.220;5.170;2022-11-15T08:19:02;41.10;;;23.42;;
76059;SDS011;64759;52.220;5.170;2022-11-15T08:21:46;39.85;;;23.70;;
76059;SDS011;64759;52.220;5.170;2022-11-15T08:24:30;42.58;;;24.17;;
76059;SDS011;64759;52.220;5.170;2022-11-15T08:27:13;37.50;;;23.98;;
76059;SDS011;64759;52.220;5.170;2022-11-15T08:30:01;31.23;;;21.27;;
76059;SDS011;64759;52.220;5.170;2022-11-15T08:32:45;36.75;;;21.73;;
76059;SDS011;64759;52.220;5.170;2022-11-15T08:35:29;39.08;;;21.85;;
76059;SDS011;64759;52.220;5.170;2022-11-15T08:38:13;42.38;;;22.60;;
76059;SDS011;64759;52.220;5.170;2022-11-15T08:41:01;35.92;;;21.63;;
76059;SDS011;64759;52.220;5.170;2022-11-15T08:43:47;35.15;;;21.70;;
76059;SDS011;64759;52.220;5.170;2022-11-15T08:46:31;30.63;;;19.00;;
76059;SDS011;64759;52.220;5.170;2022-11-15T08:49:15;37.53;;;19.48;;
76059;SDS011;64759;52.220;5.170;2022-11-15T08:51:59;33.30;;;18.10;;
76059;SDS011;64759;52.220;5.170;2022-11-15T08:54:43;34.22;;;19.02;;
76059;SDS011;64759;52.220;5.170;2022-11-15T08:57:30;27.42;;;18.15;;
76059;SDS011;64759;52.220;5.170;2022-11-15T09:00:14;36.42;;;16.40;;
76059;SDS011;64759;52.220;5.170;2022-11-15T09:02:59;21.98;;;14.23;;
76059;SDS011;64759;52.220;5.170;2022-11-15T09:05:42;28.10;;;13.25;;
76059;SDS011;64759;52.220;5.170;2022-11-15T09:08:29;23.65;;;14.10;;
76059;SDS011;64759;52.220;5.170;2022-11-15T09:11:14;22.75;;;12.60;;
76059;SDS011;64759;52.220;5.170;2022-11-15T09:14:00;22.55;;;12.10;;
76059;SDS011;64759;52.220;5.170;2022-11-15T09:16:44;20.98;;;11.65;;
76059;SDS011;64759;52.220;5.170;2022-11-15T09:19:28;17.63;;;11.02;;
76059;SDS011;64759;52.220;5.170;2022-11-15T09:22:12;18.35;;;9.98;;
76059;SDS011;64759;52.220;5.170;2022-11-15T09:24:56;20.23;;;9.45;;
76059;SDS011;64759;52.220;5.170;2022-11-15T09:27:40;18.08;;;9.50;;
76059;SDS011;64759;52.220;5.170;2022-11-15T09:30:24;19.20;;;10.02;;
76059;SDS011;64759;52.220;5.170;2022-11-15T09:33:10;21.42;;;10.38;;
76059;SDS011;64759;52.220;5.170;2022-11-15T09:36:00;18.00;;;10.38;;
76059;SDS011;64759;52.220;5.170;2022-11-15T09:38:45;18.42;;;10.80;;
76059;SDS011;64759;52.220;5.170;2022-11-15T09:41:50;17.60;;;9.45;;
76059;SDS011;64759;52.220;5.170;2022-11-15T09:51:25;18.70;;;10.02;;
76059;SDS011;64759;52.220;5.170;2022-11-15T09:56:41;15.07;;;8.23;;
76059;SDS011;64759;52.220;5.170;2022-11-15T10:01:43;15.85;;;8.40;;
76059;SDS011;64759;52.220;5.170;2022-11-15T10:04:16;11.68;;;7.03;;
76059;SDS011;64759;52.220;5.170;2022-11-15T10:06:45;14.63;;;7.30;;
76059;SDS011;64759;52.220;5.170;2022-11-15T10:09:18;14.27;;;7.18;;
76059;SDS011;64759;52.220;5.170;2022-11-15T10:11:48;13.65;;;7.55;;
76059;SDS011;64759;52.220;5.170;2022-11-15T10:14:15;13.00;;;7.22;;
76059;SDS011;64759;52.220;5.170;2022-11-15T10:24:52;13.82;;;6.28;;
76059;SDS011;64759;52.220;5.170;2022-11-15T10:27:36;8.95;;;5.07;;
76059;SDS011;64759;52.220;5.170;2022-11-15T10:30:02;11.38;;;5.40;;
76059;SDS011;64759;52.220;5.170;2022-11-15T10:32:29;9.95;;;5.50;;
76059;SDS011;64759;52.220;5.170;2022-11-15T10:34:57;11.85;;;5.22;;
76059;SDS011;64759;52.220;5.170;2022-11-15T10:37:29;8.68;;;4.43;;
76059;SDS011;64759;52.220;5.170;2022-11-15T10:40:06;9.43;;;5.13;;
76059;SDS011;64759;52.220;5.170;2022-11-15T10:42:41;11.85;;;6.20;;
76059;SDS011;64759;52.220;5.170;2022-11-15T10:47:52;9.73;;;4.50;;
76059;SDS011;64759;52.220;5.170;2022-11-15T10:50:28;6.90;;;4.40;;
76059;SDS011;64759;52.220;5.170;2022-11-15T10:52:56;8.63;;;4.85;;
76059;SDS011;64759;52.220;5.170;2022-11-15T10:55:28;7.88;;;4.07;;
76059;SDS011;64759;52.220;5.170;2022-11-15T10:58:09;6.35;;;4.13;;
76059;SDS011;64759;52.220;5.170;2022-11-15T11:00:47;6.55;;;3.80;;
76059;SDS011;64759;52.220;5.170;2022-11-15T11:03:27;11.75;;;4.22;;
76059;SDS011;64759;52.220;5.170;2022-11-15T11:08:32;10.23;;;3.97;;
76059;SDS011;64759;52.220;5.170;2022-11-15T11:10:59;8.70;;;3.22;;
76059;SDS011;64759;52.220;5.170;2022-11-15T11:13:39;8.48;;;4.13;;
76059;SDS011;64759;52.220;5.170;2022-11-15T11:18:45;8.18;;;4.15;;
76059;SDS011;64759;52.220;5.170;2022-11-15T11:24:10;9.00;;;3.58;;
76059;SDS011;64759;52.220;5.170;2022-11-15T11:26:42;8.65;;;3.22;;
76059;SDS011;64759;52.220;5.170;2022-11-15T11:29:20;6.30;;;2.90;;
76059;SDS011;64759;52.220;5.170;2022-11-15T11:32:22;5.70;;;3.10;;
76059;SDS011;64759;52.220;5.170;2022-11-15T11:40:35;5.85;;;2.10;;
76059;SDS011;64759;52.220;5.170;2022-11-15T11:43:12;10.23;;;3.53;;
76059;SDS011;64759;52.220;5.170;2022-11-15T11:50:50;7.45;;;2.78;;
76059;SDS011;64759;52.220;5.170;2022-11-15T11:53:27;7.00;;;2.00;;
76059;SDS011;64759;52.220;5.170;2022-11-15T11:55:57;8.02;;;2.10;;
76059;SDS011;64759;52.220;5.170;2022-11-15T12:06:33;5.32;;;1.75;;
76059;SDS011;64759;52.220;5.170;2022-11-15T12:09:15;10.85;;;2.13;;
76059;SDS011;64759;52.220;5.170;2022-11-15T12:11:50;10.75;;;2.15;;
76059;SDS011;64759;52.220;5.170;2022-11-15T12:17:16;9.20;;;2.88;;
76059;SDS011;64759;52.220;5.170;2022-11-15T12:19:46;7.32;;;1.83;;
76059;SDS011;64759;52.220;5.170;2022-11-15T12:22:18;6.45;;;2.05;;
76059;SDS011;64759;52.220;5.170;2022-11-15T12:27:44;11.00;;;2.83;;
76059;SDS011;64759;52.220;5.170;2022-11-15T12:30:18;11.35;;;2.45;;
76059;SDS011;64759;52.220;5.170;2022-11-15T12:32:58;8.65;;;2.03;;
76059;SDS011;64759;52.220;5.170;2022-11-15T12:35:35;6.38;;;1.90;;
76059;SDS011;64759;52.220;5.170;2022-11-15T12:38:03;4.90;;;1.20;;
76059;SDS011;64759;52.220;5.170;2022-11-15T12:40:33;11.30;;;1.60;;
76059;SDS011;64759;52.220;5.170;2022-11-15T12:43:10;11.68;;;1.80;;
76059;SDS011;64759;52.220;5.170;2022-11-15T12:46:02;5.47;;;1.83;;
76059;SDS011;64759;52.220;5.170;2022-11-15T12:51:01;5.15;;;1.48;;
76059;SDS011;64759;52.220;5.170;2022-11-15T12:58:48;9.98;;;2.42;;
76059;SDS011;64759;52.220;5.170;2022-11-15T13:06:52;6.25;;;1.58;;
76059;SDS011;64759;52.220;5.170;2022-11-15T13:12:11;5.85;;;1.17;;
76059;SDS011;64759;52.220;5.170;2022-11-15T13:17:37;9.30;;;1.50;;
76059;SDS011;64759;52.220;5.170;2022-11-15T13:20:18;3.45;;;1.10;;
76059;SDS011;64759;52.220;5.170;2022-11-15T13:30:38;6.45;;;1.63;;
76059;SDS011;64759;52.220;5.170;2022-11-15T13:33:08;8.00;;;1.58;;
76059;SDS011;64759;52.220;5.170;2022-11-15T13:35:40;7.82;;;1.50;;
76059;SDS011;64759;52.220;5.170;2022-11-15T13:38:16;5.35;;;1.48;;
76059;SDS011;64759;52.220;5.170;2022-11-15T13:40:50;6.45;;;1.45;;
76059;SDS011;64759;52.220;5.170;2022-11-15T13:48:41;3.95;;;1.52;;
76059;SDS011;64759;52.220;5.170;2022-11-15T13:53:47;5.90;;;1.20;;
76059;SDS011;64759;52.220;5.170;2022-11-15T13:56:19;6.72;;;1.55;;
76059;SDS011;64759;52.220;5.170;2022-11-15T13:58:45;8.90;;;1.73;;
76059;SDS011;64759;52.220;5.170;2022-11-15T14:01:16;7.50;;;1.42;;
76059;SDS011;64759;52.220;5.170;2022-11-15T14:03:55;11.55;;;2.15;;
76059;SDS011;64759;52.220;5.170;2022-11-15T14:06:23;7.50;;;1.98;;
76059;SDS011;64759;52.220;5.170;2022-11-15T14:09:00;4.53;;;1.40;;
76059;SDS011;64759;52.220;5.170;2022-11-15T14:11:29;10.80;;;2.10;;
76059;SDS011;64759;52.220;5.170;2022-11-15T14:16:39;7.97;;;2.55;;
76059;SDS011;64759;52.220;5.170;2022-11-15T14:19:05;9.20;;;1.90;;
76059;SDS011;64759;52.220;5.170;2022-11-15T14:21:34;7.60;;;2.45;;
76059;SDS011;64759;52.220;5.170;2022-11-15T14:24:16;9.38;;;2.67;;
76059;SDS011;64759;52.220;5.170;2022-11-15T14:26:43;5.55;;;1.52;;
76059;SDS011;64759;52.220;5.170;2022-11-15T14:29:28;5.63;;;1.63;;
76059;SDS011;64759;52.220;5.170;2022-11-15T14:34:45;5.00;;;1.80;;
76059;SDS011;64759;52.220;5.170;2022-11-15T14:39:45;5.13;;;1.95;;
76059;SDS011;64759;52.220;5.170;2022-11-15T14:42:12;6.60;;;1.80;;
76059;SDS011;64759;52.220;5.170;2022-11-15T14:44:37;8.65;;;2.17;;
76059;SDS011;64759;52.220;5.170;2022-11-15T14:47:03;5.38;;;1.83;;
76059;SDS011;64759;52.220;5.170;2022-11-15T14:49:28;7.63;;;1.40;;
76059;SDS011;64759;52.220;5.170;2022-11-15T14:51:53;10.25;;;1.60;;
76059;SDS011;64759;52.220;5.170;2022-11-15T14:54:19;10.02;;;2.22;;
76059;SDS011;64759;52.220;5.170;2022-11-15T14:56:44;4.95;;;1.70;;
76059;SDS011;64759;52.220;5.170;2022-11-15T14:59:10;7.00;;;1.42;;
76059;SDS011;64759;52.220;5.170;2022-11-15T15:01:35;6.25;;;1.45;;
76059;SDS011;64759;52.220;5.170;2022-11-15T15:04:00;7.10;;;1.80;;
76059;SDS011;64759;52.220;5.170;2022-11-15T15:06:27;4.78;;;1.70;;
76059;SDS011;64759;52.220;5.170;2022-11-15T15:08:52;5.80;;;1.80;;
76059;SDS011;64759;52.220;5.170;2022-11-15T15:11:20;7.13;;;1.50;;
76059;SDS011;64759;52.220;5.170;2022-11-15T15:13:47;7.95;;;2.05;;
76059;SDS011;64759;52.220;5.170;2022-11-15T15:16:13;5.65;;;1.80;;
76059;SDS011;64759;52.220;5.170;2022-11-15T15:18:38;3.13;;;1.55;;
76059;SDS011;64759;52.220;5.170;2022-11-15T15:21:04;4.13;;;1.50;;
76059;SDS011;64759;52.220;5.170;2022-11-15T15:23:48;4.95;;;1.75;;
76059;SDS011;64759;52.220;5.170;2022-11-15T15:26:13;7.47;;;2.13;;
76059;SDS011;64759;52.220;5.170;2022-11-15T15:28:39;5.43;;;1.90;;
76059;SDS011;64759;52.220;5.170;2022-11-15T15:31:05;8.45;;;2.25;;
76059;SDS011;64759;52.220;5.170;2022-11-15T15:33:31;7.32;;;1.40;;
76059;SDS011;64759;52.220;5.170;2022-11-15T15:35:57;6.50;;;1.70;;
76059;SDS011;64759;52.220;5.170;2022-11-15T15:38:22;3.83;;;1.15;;
76059;SDS011;64759;52.220;5.170;2022-11-15T15:40:48;4.30;;;1.40;;
76059;SDS011;64759;52.220;5.170;2022-11-15T15:43:13;3.10;;;1.02;;
76059;SDS011;64759;52.220;5.170;2022-11-15T15:45:39;11.07;;;1.60;;
76059;SDS011;64759;52.220;5.170;2022-11-15T15:48:08;5.60;;;1.58;;
76059;SDS011;64759;52.220;5.170;2022-11-15T15:50:36;5.82;;;1.40;;
76059;SDS011;64759;52.220;5.170;2022-11-15T15:53:02;9.68;;;1.30;;
76059;SDS011;64759;52.220;5.170;2022-11-15T15:55:28;3.92;;;1.70;;
76059;SDS011;64759;52.220;5.170;2022-11-15T15:57:54;4.97;;;1.48;;
76059;SDS011;64759;52.220;5.170;2022-11-15T16:00:20;4.03;;;1.60;;
76059;SDS011;64759;52.220;5.170;2022-11-15T16:02:48;4.65;;;1.52;;
76059;SDS011;64759;52.220;5.170;2022-11-15T16:05:14;4.38;;;1.08;;
76059;SDS011;64759;52.220;5.170;2022-11-15T16:07:39;7.53;;;1.65;;
76059;SDS011;64759;52.220;5.170;2022-11-15T16:10:18;6.03;;;1.60;;
76059;SDS011;64759;52.220;5.170;2022-11-15T16:12:47;5.45;;;1.25;;
76059;SDS011;64759;52.220;5.170;2022-11-15T16:15:13;4.85;;;1.40;;
76059;SDS011;64759;52.220;5.170;2022-11-15T16:17:39;5.90;;;1.10;;
76059;SDS011;64759;52.220;5.170;2022-11-15T16:20:20;7.38;;;1.50;;
76059;SDS011;64759;52.220;5.170;2022-11-15T16:23:05;5.90;;;1.60;;
76059;SDS011;64759;52.220;5.170;2022-11-15T16:31:10;10.95;;;3.05;;
76059;SDS011;64759;52.220;5.170;2022-11-15T16:33:36;5.35;;;1.92;;
76059;SDS011;64759;52.220;5.170;2022-11-15T16:36:03;5.13;;;2.50;;
76059;SDS011;64759;52.220;5.170;2022-11-15T16:38:30;9.07;;;3.00;;
76059;SDS011;64759;52.220;5.170;2022-11-15T16:40:56;7.93;;;2.00;;
76059;SDS011;64759;52.220;5.170;2022-11-15T16:43:21;7.57;;;2.35;;
76059;SDS011;64759;52.220;5.170;2022-11-15T16:45:47;4.00;;;2.00;;
76059;SDS011;64759;52.220;5.170;2022-11-15T16:48:21;7.38;;;1.80;;
76059;SDS011;64759;52.220;5.170;2022-11-15T16:50:49;4.55;;;2.17;;
76059;SDS011;64759;52.220;5.170;2022-11-15T16:53:15;6.68;;;2.40;;
76059;SDS011;64759;52.220;5.170;2022-11-15T16:55:41;3.25;;;1.58;;
76059;SDS011;64759;52.220;5.170;2022-11-15T16:58:07;8.48;;;1.60;;
76059;SDS011;64759;52.220;5.170;2022-11-15T17:00:34;6.80;;;1.67;;
76059;SDS011;64759;52.220;5.170;2022-11-15T17:02:59;13.00;;;2.00;;
76059;SDS011;64759;52.220;5.170;2022-11-15T17:05:24;7.25;;;2.45;;
76059;SDS011;64759;52.220;5.170;2022-11-15T17:07:53;5.10;;;1.50;;
76059;SDS011;64759;52.220;5.170;2022-11-15T17:10:18;5.25;;;1.80;;
76059;SDS011;64759;52.220;5.170;2022-11-15T17:12:45;4.75;;;1.70;;
76059;SDS011;64759;52.220;5.170;2022-11-15T17:15:11;15.15;;;3.38;;
76059;SDS011;64759;52.220;5.170;2022-11-15T17:17:38;6.75;;;2.05;;
76059;SDS011;64759;52.220;5.170;2022-11-15T17:20:04;8.45;;;2.20;;
76059;SDS011;64759;52.220;5.170;2022-11-15T17:22:34;5.03;;;1.52;;
76059;SDS011;64759;52.220;5.170;2022-11-15T17:25:00;6.65;;;2.60;;
76059;SDS011;64759;52.220;5.170;2022-11-15T17:27:25;6.47;;;1.75;;
76059;SDS011;64759;52.220;5.170;2022-11-15T17:29:50;7.97;;;2.85;;
76059;SDS011;64759;52.220;5.170;2022-11-15T17:32:16;10.73;;;2.67;;
76059;SDS011;64759;52.220;5.170;2022-11-15T17:34:42;5.88;;;2.55;;
76059;SDS011;64759;52.220;5.170;2022-11-15T17:37:07;4.38;;;2.22;;
76059;SDS011;64759;52.220;5.170;2022-11-15T17:39:32;7.60;;;2.10;;
76059;SDS011;64759;52.220;5.170;2022-11-15T17:41:58;9.15;;;2.50;;
76059;SDS011;64759;52.220;5.170;2022-11-15T17:44:23;6.47;;;2.92;;
76059;SDS011;64759;52.220;5.170;2022-11-15T17:46:48;9.80;;;3.00;;
76059;SDS011;64759;52.220;5.170;2022-11-15T17:49:14;15.75;;;3.70;;
76059;SDS011;64759;52.220;5.170;2022-11-15T17:51:39;8.57;;;2.40;;
76059;SDS011;64759;52.220;5.170;2022-11-15T17:54:04;7.43;;;2.85;;
76059;SDS011;64759;52.220;5.170;2022-11-15T17:56:30;12.73;;;4.38;;